Time,TemperatureF,DewpointF,PressureIn,WindDirection,WindDirectionDegrees,WindSpeedMPH,WindSpeedGustMPH,Humidity,HourlyPrecipIn,Conditions,Clouds,dailyrainin,SoftwareType,DateUTC
2013-04-07 00:00:00,31.5,26.4,30.31,SE,132,0.0,1.0,81,0.00,,---,0.00,VWS V14.00,2013-04-07 04:00:00,
2013-04-07 00:05:00,31.7,26.2,30.31,SE,132,1.0,2.0,80,0.00,,---,0.00,VWS V14.00,2013-04-07 04:05:00,
2013-04-07 00:10:00,31.7,26.2,30.31,SE,132,0.0,2.0,80,0.00,,---,0.00,VWS V14.00,2013-04-07 04:10:00,
2013-04-07 00:15:00,32.0,26.5,30.31,SE,132,0.0,2.0,80,0.00,,---,0.00,VWS V14.00,2013-04-07 04:15:00,
2013-04-07 00:20:00,31.9,26.1,30.31,SE,132,0.0,2.0,79,0.00,,---,0.00,VWS V14.00,2013-04-07 04:20:00,
2013-04-07 00:25:00,32.1,26.3,30.31,SE,132,0.0,2.0,79,0.00,,---,0.00,VWS V14.00,2013-04-07 04:25:00,
2013-04-07 00:30:00,32.1,26.0,30.31,SE,132,0.0,2.0,78,0.00,,---,0.00,VWS V14.00,2013-04-07 04:30:00,
2013-04-07 00:35:00,32.2,25.8,30.31,SE,132,0.0,0.0,77,0.00,,---,0.00,VWS V14.00,2013-04-07 04:35:00,
2013-04-07 00:40:00,32.4,26.0,30.31,SE,132,0.0,0.0,77,0.00,,---,0.00,VWS V14.00,2013-04-07 04:40:00,
2013-04-07 00:45:00,32.6,25.6,30.31,SE,132,1.0,2.0,75,0.00,,---,0.00,VWS V14.00,2013-04-07 04:45:00,
2013-04-07 00:50:00,32.7,25.3,30.30,SE,132,0.0,2.0,74,0.00,,---,0.00,VWS V14.00,2013-04-07 04:50:00,
2013-04-07 00:55:00,33.0,25.3,30.30,SE,132,0.0,2.0,73,0.00,,---,0.00,VWS V14.00,2013-04-07 04:55:00,
2013-04-07 01:00:00,32.7,24.7,30.30,SE,132,0.0,3.0,72,0.00,,---,0.00,VWS V14.00,2013-04-07 05:00:00,
2013-04-07 01:05:00,32.6,24.2,30.30,SE,132,0.0,2.0,71,0.00,,---,0.00,VWS V14.00,2013-04-07 05:05:00,
2013-04-07 01:10:00,32.2,24.2,30.30,SE,132,2.0,3.0,72,0.00,,---,0.00,VWS V14.00,2013-04-07 05:10:00,
2013-04-07 01:15:00,31.8,23.5,30.30,SE,132,2.0,3.0,71,0.00,,---,0.00,VWS V14.00,2013-04-07 05:15:00,
2013-04-07 01:20:00,31.5,23.2,30.30,SE,132,1.0,3.0,71,0.00,,---,0.00,VWS V14.00,2013-04-07 05:20:00,
2013-04-07 01:25:00,31.2,23.2,30.30,ESE,117,1.0,4.0,72,0.00,,---,0.00,VWS V14.00,2013-04-07 05:25:00,
2013-04-07 01:30:00,31.4,24.1,30.30,SE,142,1.0,4.0,74,0.00,,---,0.00,VWS V14.00,2013-04-07 05:30:00,
2013-04-07 01:35:00,31.6,24.6,30.30,SE,142,0.0,1.0,75,0.00,,---,0.00,VWS V14.00,2013-04-07 05:35:00,
2013-04-07 01:40:00,31.5,24.5,30.30,SE,142,0.0,1.0,75,0.00,,---,0.00,VWS V14.00,2013-04-07 05:40:00,
2013-04-07 01:46:00,31.2,24.5,30.29,SE,142,0.0,1.0,76,0.00,,---,0.00,VWS V14.00,2013-04-07 05:46:00,
2013-04-07 01:51:00,31.1,24.8,30.29,SE,142,0.0,1.0,77,0.00,,---,0.00,VWS V14.00,2013-04-07 05:51:00,
2013-04-07 01:56:00,30.7,24.7,30.29,SE,142,1.0,2.0,78,0.00,,---,0.00,VWS V14.00,2013-04-07 05:56:00,
2013-04-07 02:01:00,30.7,25.0,30.29,SE,142,0.0,2.0,79,0.00,,---,0.00,VWS V14.00,2013-04-07 06:01:00,
2013-04-07 02:06:00,30.7,25.3,30.29,SE,142,0.0,0.0,80,0.00,,---,0.00,VWS V14.00,2013-04-07 06:06:00,
2013-04-07 02:11:00,30.7,25.6,30.28,SE,142,0.0,1.0,81,0.00,,---,0.00,VWS V14.00,2013-04-07 06:11:00,
2013-04-07 02:16:00,30.5,25.4,30.28,SE,142,0.0,1.0,81,0.00,,---,0.00,VWS V14.00,2013-04-07 06:16:00,
2013-04-07 02:21:00,30.3,25.5,30.28,SE,142,1.0,2.0,82,0.00,,---,0.00,VWS V14.00,2013-04-07 06:21:00,
2013-04-07 02:26:00,30.5,26.0,30.28,SE,142,0.0,2.0,83,0.00,,---,0.00,VWS V14.00,2013-04-07 06:26:00,
2013-04-07 02:31:00,30.5,26.0,30.28,SSE,153,2.0,3.0,83,0.00,,---,0.00,VWS V14.00,2013-04-07 06:31:00,
2013-04-07 02:36:00,30.7,26.2,30.27,SE,132,2.0,4.0,83,0.00,,---,0.00,VWS V14.00,2013-04-07 06:36:00,
2013-04-07 02:41:00,30.9,26.4,30.27,SSE,148,1.0,4.0,83,0.00,,---,0.00,VWS V14.00,2013-04-07 06:41:00,
2013-04-07 02:46:00,31.0,26.5,30.27,SSE,157,3.0,4.0,83,0.00,,---,0.00,VWS V14.00,2013-04-07 06:46:00,
2013-04-07 02:51:00,30.9,26.4,30.27,SSE,159,2.0,4.0,83,0.00,,---,0.00,VWS V14.00,2013-04-07 06:51:00,
2013-04-07 02:56:00,31.1,26.5,30.27,SSE,147,0.0,4.0,83,0.00,,---,0.00,VWS V14.00,2013-04-07 06:56:00,
2013-04-07 03:01:00,31.0,26.2,30.27,SSE,155,1.0,4.0,82,0.00,,---,0.00,VWS V14.00,2013-04-07 07:01:00,
2013-04-07 03:06:00,30.8,26.0,30.27,South,174,1.0,3.0,82,0.00,,---,0.00,VWS V14.00,2013-04-07 07:06:00,
2013-04-07 03:11:00,31.1,26.3,30.27,South,169,2.0,5.0,82,0.00,,---,0.00,VWS V14.00,2013-04-07 07:11:00,
2013-04-07 03:15:00,31.1,26.0,30.26,South,171,0.0,5.0,81,0.00,,---,0.00,VWS V14.00,2013-04-07 07:15:00,
2013-04-07 03:20:00,31.2,25.8,30.26,South,171,0.0,5.0,80,0.00,,---,0.00,VWS V14.00,2013-04-07 07:20:00,
2013-04-07 03:25:00,31.2,25.5,30.27,South,171,0.0,5.0,79,0.00,,---,0.00,VWS V14.00,2013-04-07 07:25:00,
2013-04-07 03:30:00,31.2,25.1,30.27,South,171,0.0,5.0,78,0.00,,---,0.00,VWS V14.00,2013-04-07 07:30:00,
2013-04-07 03:35:00,31.0,25.0,30.27,South,171,0.0,1.0,78,0.00,,---,0.00,VWS V14.00,2013-04-07 07:35:00,
2013-04-07 03:40:00,30.9,24.9,30.26,South,171,0.0,1.0,78,0.00,,---,0.00,VWS V14.00,2013-04-07 07:40:00,
2013-04-07 03:46:00,30.9,24.9,30.26,South,171,0.0,1.0,78,0.00,,---,0.00,VWS V14.00,2013-04-07 07:46:00,
2013-04-07 03:51:00,31.0,24.6,30.26,South,171,0.0,2.0,77,0.00,,---,0.00,VWS V14.00,2013-04-07 07:51:00,
2013-04-07 03:56:00,31.2,24.5,30.26,South,171,0.0,2.0,76,0.00,,---,0.00,VWS V14.00,2013-04-07 07:56:00,
2013-04-07 04:01:00,31.2,24.2,30.26,South,171,1.0,1.0,75,0.00,,---,0.00,VWS V14.00,2013-04-07 08:01:00,
2013-04-07 04:06:00,31.3,24.6,30.26,South,171,0.0,1.0,76,0.00,,---,0.00,VWS V14.00,2013-04-07 08:06:00,
2013-04-07 04:11:00,31.1,24.1,30.26,South,171,0.0,1.0,75,0.00,,---,0.00,VWS V14.00,2013-04-07 08:11:00,
2013-04-07 04:16:00,31.0,24.3,30.26,South,171,0.0,1.0,76,0.00,,---,0.00,VWS V14.00,2013-04-07 08:16:00,
2013-04-07 04:21:00,30.6,24.0,30.26,South,171,1.0,1.0,76,0.00,,---,0.00,VWS V14.00,2013-04-07 08:21:00,
2013-04-07 04:26:00,30.4,24.1,30.26,South,171,0.0,1.0,77,0.00,,---,0.00,VWS V14.00,2013-04-07 08:26:00,
2013-04-07 04:31:00,30.5,24.5,30.26,SSE,162,1.0,2.0,78,0.00,,---,0.00,VWS V14.00,2013-04-07 08:31:00,
2013-04-07 04:36:00,30.5,24.8,30.26,SSE,163,0.0,2.0,79,0.00,,---,0.00,VWS V14.00,2013-04-07 08:36:00,
2013-04-07 04:41:00,30.5,24.8,30.26,SSE,163,0.0,2.0,79,0.00,,---,0.00,VWS V14.00,2013-04-07 08:41:00,
2013-04-07 04:46:00,30.4,24.7,30.26,SSE,163,0.0,2.0,79,0.00,,---,0.00,VWS V14.00,2013-04-07 08:46:00,
2013-04-07 04:51:00,30.3,24.6,30.26,South,177,0.0,2.0,79,0.00,,---,0.00,VWS V14.00,2013-04-07 08:51:00,
2013-04-07 04:57:00,30.7,25.0,30.27,South,182,0.0,2.0,79,0.00,,---,0.00,VWS V14.00,2013-04-07 08:57:00,
2013-04-07 05:02:00,31.0,25.3,30.26,South,182,0.0,0.0,79,0.00,,---,0.00,VWS V14.00,2013-04-07 09:02:00,
2013-04-07 05:07:00,31.0,25.0,30.26,South,182,0.0,1.0,78,0.00,,---,0.00,VWS V14.00,2013-04-07 09:07:00,
2013-04-07 05:12:00,30.8,24.8,30.27,South,182,1.0,2.0,78,0.00,,---,0.00,VWS V14.00,2013-04-07 09:12:00,
2013-04-07 05:17:00,30.9,25.2,30.27,South,184,0.0,2.0,79,0.00,,---,0.00,VWS V14.00,2013-04-07 09:17:00,
2013-04-07 05:22:00,31.4,25.6,30.27,South,184,1.0,2.0,79,0.00,,---,0.00,VWS V14.00,2013-04-07 09:22:00,
2013-04-07 05:27:00,31.9,25.8,30.27,SSW,197,1.0,2.0,78,0.00,,---,0.00,VWS V14.00,2013-04-07 09:27:00,
2013-04-07 05:32:00,32.3,25.9,30.27,SSW,203,3.0,3.0,77,0.00,,---,0.00,VWS V14.00,2013-04-07 09:32:00,
2013-04-07 05:37:00,32.5,25.8,30.27,SSE,168,1.0,3.0,76,0.00,,---,0.00,VWS V14.00,2013-04-07 09:37:00,
2013-04-07 05:42:00,32.5,26.1,30.28,SSW,213,2.0,4.0,77,0.00,,---,0.00,VWS V14.00,2013-04-07 09:42:00,
2013-04-07 05:47:00,32.8,26.4,30.28,SW,233,0.0,4.0,77,0.00,,---,0.00,VWS V14.00,2013-04-07 09:47:00,
2013-04-07 05:52:00,32.8,26.1,30.28,SSE,167,0.0,4.0,76,0.00,,---,0.00,VWS V14.00,2013-04-07 09:52:00,
2013-04-07 05:57:00,32.4,26.0,30.28,South,185,3.0,4.0,77,0.00,,---,0.00,VWS V14.00,2013-04-07 09:57:00,
2013-04-07 06:02:00,32.3,25.9,30.28,SSW,207,1.0,2.0,77,0.00,,---,0.00,VWS V14.00,2013-04-07 10:02:00,
2013-04-07 06:07:00,32.1,25.7,30.28,SSW,213,0.0,3.0,77,0.00,,---,0.00,VWS V14.00,2013-04-07 10:07:00,
2013-04-07 06:12:00,32.1,26.0,30.28,SW,221,2.0,3.0,78,0.00,,---,0.00,VWS V14.00,2013-04-07 10:12:00,
2013-04-07 06:17:00,32.1,26.0,30.28,SSW,213,1.0,3.0,78,0.00,,---,0.00,VWS V14.00,2013-04-07 10:17:00,
2013-04-07 06:22:00,32.0,25.9,30.29,SSW,213,1.0,3.0,78,0.00,,---,0.00,VWS V14.00,2013-04-07 10:22:00,
2013-04-07 06:27:00,31.9,25.8,30.28,SSW,213,0.0,3.0,78,0.00,,---,0.00,VWS V14.00,2013-04-07 10:27:00,
2013-04-07 06:32:00,31.8,26.0,30.28,SSW,213,0.0,1.0,79,0.00,,---,0.00,VWS V14.00,2013-04-07 10:32:00,
2013-04-07 06:37:00,31.9,26.1,30.29,SSW,205,0.0,3.0,79,0.00,,---,0.00,VWS V14.00,2013-04-07 10:37:00,
2013-04-07 06:42:00,32.0,25.9,30.28,South,175,1.0,5.0,78,0.00,,---,0.00,VWS V14.00,2013-04-07 10:42:00,
2013-04-07 06:47:00,32.0,25.9,30.29,South,169,1.0,5.0,78,0.00,,---,0.00,VWS V14.00,2013-04-07 10:47:00,
2013-04-07 06:52:00,32.2,26.1,30.29,South,184,3.0,5.0,78,0.00,,---,0.00,VWS V14.00,2013-04-07 10:52:00,
2013-04-07 06:57:00,32.4,26.3,30.29,South,172,0.0,5.0,78,0.00,,---,0.00,VWS V14.00,2013-04-07 10:57:00,
2013-04-07 07:02:00,32.8,26.7,30.29,South,183,2.0,3.0,78,0.00,,---,0.00,VWS V14.00,2013-04-07 11:02:00,
2013-04-07 07:07:00,33.3,26.9,30.29,SSW,202,0.0,4.0,77,0.00,,---,0.00,VWS V14.00,2013-04-07 11:07:00,
2013-04-07 07:12:00,33.9,27.5,30.29,SSW,213,1.0,4.0,77,0.00,,---,0.00,VWS V14.00,2013-04-07 11:12:00,
2013-04-07 07:17:00,34.4,28.0,30.30,SSW,212,1.0,4.0,77,0.00,,---,0.00,VWS V14.00,2013-04-07 11:17:00,
2013-04-07 07:22:00,34.7,27.9,30.30,SSW,207,0.0,5.0,76,0.00,,---,0.00,VWS V14.00,2013-04-07 11:22:00,
2013-04-07 07:27:00,35.1,28.3,30.30,WSW,255,3.0,7.0,76,0.00,,---,0.00,VWS V14.00,2013-04-07 11:27:00,
2013-04-07 07:32:00,35.6,28.8,30.30,SW,227,2.0,5.0,76,0.00,,---,0.00,VWS V14.00,2013-04-07 11:32:00,
2013-04-07 07:37:00,36.1,29.3,30.30,SW,219,4.0,6.0,76,0.00,,---,0.00,VWS V14.00,2013-04-07 11:37:00,
2013-04-07 07:42:00,36.4,29.6,30.30,SSW,200,1.0,6.0,76,0.00,,---,0.00,VWS V14.00,2013-04-07 11:42:00,
2013-04-07 07:47:00,36.6,29.8,30.31,SSW,209,2.0,6.0,76,0.00,,---,0.00,VWS V14.00,2013-04-07 11:47:00,
2013-04-07 07:52:00,36.8,30.0,30.30,SW,217,2.0,8.0,76,0.00,,---,0.00,VWS V14.00,2013-04-07 11:52:00,
2013-04-07 07:57:00,37.0,30.1,30.30,WSW,238,3.0,8.0,76,0.00,,---,0.00,VWS V14.00,2013-04-07 11:57:00,
2013-04-07 08:02:00,37.6,30.7,30.30,West,261,4.0,7.0,76,0.00,,---,0.00,VWS V14.00,2013-04-07 12:02:00,
2013-04-07 08:07:00,38.0,30.8,30.31,SSW,207,3.0,7.0,75,0.00,,---,0.00,VWS V14.00,2013-04-07 12:07:00,
2013-04-07 08:12:00,38.6,31.0,30.31,SW,216,1.0,7.0,74,0.00,,---,0.00,VWS V14.00,2013-04-07 12:12:00,
2013-04-07 08:17:00,39.0,31.1,30.30,SSW,200,3.0,7.0,73,0.00,,---,0.00,VWS V14.00,2013-04-07 12:17:00,
2013-04-07 08:22:00,39.4,30.8,30.30,SW,228,3.0,7.0,71,0.00,,---,0.00,VWS V14.00,2013-04-07 12:22:00,
2013-04-07 08:27:00,39.7,30.7,30.30,SW,228,1.0,7.0,70,0.00,,---,0.00,VWS V14.00,2013-04-07 12:27:00,
2013-04-07 08:32:00,40.2,31.6,30.30,South,171,2.0,4.0,71,0.00,,---,0.00,VWS V14.00,2013-04-07 12:32:00,
2013-04-07 08:37:00,40.7,31.7,30.30,SW,232,2.0,5.0,70,0.00,,---,0.00,VWS V14.00,2013-04-07 12:37:00,
2013-04-07 08:42:00,40.9,31.2,30.29,SW,223,1.0,8.0,68,0.00,,---,0.00,VWS V14.00,2013-04-07 12:42:00,
2013-04-07 08:47:00,41.4,32.0,30.29,SSW,195,1.0,8.0,69,0.00,,---,0.00,VWS V14.00,2013-04-07 12:47:00,
2013-04-07 08:52:00,42.0,31.5,30.29,West,262,5.0,11.0,66,0.00,,---,0.00,VWS V14.00,2013-04-07 12:52:00,
2013-04-07 08:57:00,41.9,31.4,30.29,WSW,253,4.0,11.0,66,0.00,,---,0.00,VWS V14.00,2013-04-07 12:57:00,
2013-04-07 09:02:00,42.9,31.6,30.29,WSW,237,4.0,7.0,64,0.00,,---,0.00,VWS V14.00,2013-04-07 13:02:00,
2013-04-07 09:07:00,43.5,31.8,30.29,West,261,1.0,7.0,63,0.00,,---,0.00,VWS V14.00,2013-04-07 13:07:00,
2013-04-07 09:12:00,43.4,32.4,30.28,WSW,253,4.0,8.0,65,0.00,,---,0.00,VWS V14.00,2013-04-07 13:12:00,
2013-04-07 09:17:00,44.0,32.2,30.28,West,274,1.0,8.0,63,0.00,,---,0.00,VWS V14.00,2013-04-07 13:17:00,
2013-04-07 09:22:00,45.1,31.2,30.28,WSW,242,7.0,8.0,58,0.00,,---,0.00,VWS V14.00,2013-04-07 13:22:00,
2013-04-07 09:27:00,45.9,31.5,30.28,SSW,202,5.0,8.0,57,0.00,,---,0.00,VWS V14.00,2013-04-07 13:27:00,
2013-04-07 09:32:00,46.5,30.3,30.28,SW,229,4.0,13.0,53,0.00,,---,0.00,VWS V14.00,2013-04-07 13:32:00,
2013-04-07 09:37:00,46.3,29.6,30.27,WNW,292,4.0,13.0,52,0.00,,---,0.00,VWS V14.00,2013-04-07 13:37:00,
2013-04-07 09:42:00,47.0,29.8,30.27,SW,236,8.0,13.0,51,0.00,,---,0.00,VWS V14.00,2013-04-07 13:42:00,
2013-04-07 09:47:00,47.1,30.4,30.27,SW,227,4.0,13.0,52,0.00,,---,0.00,VWS V14.00,2013-04-07 13:47:00,
2013-04-07 09:52:00,46.7,29.1,30.27,West,273,2.0,13.0,50,0.00,,---,0.00,VWS V14.00,2013-04-07 13:52:00,
2013-04-07 09:57:00,47.6,30.9,30.27,South,183,9.0,13.0,52,0.00,,---,0.00,VWS V14.00,2013-04-07 13:57:00,
2013-04-07 10:02:00,48.3,31.0,30.27,SSW,204,7.0,9.0,51,0.00,,---,0.00,VWS V14.00,2013-04-07 14:02:00,
2013-04-07 10:07:00,48.0,31.7,30.27,SW,223,4.0,11.0,53,0.00,,---,0.00,VWS V14.00,2013-04-07 14:07:00,
2013-04-07 10:12:00,48.6,32.7,30.26,SSE,154,2.0,12.0,54,0.00,,---,0.00,VWS V14.00,2013-04-07 14:12:00,
2013-04-07 10:17:00,48.8,32.0,30.26,SE,144,1.0,12.0,52,0.00,,---,0.00,VWS V14.00,2013-04-07 14:17:00,
2013-04-07 10:22:00,49.3,32.9,30.26,West,274,3.0,12.0,53,0.00,,---,0.00,VWS V14.00,2013-04-07 14:22:00,
2013-04-07 10:27:00,49.9,33.0,30.25,WSW,250,4.0,12.0,52,0.00,,---,0.00,VWS V14.00,2013-04-07 14:27:00,
2013-04-07 10:32:00,49.5,31.6,30.25,SSE,154,4.0,10.0,50,0.00,,---,0.00,VWS V14.00,2013-04-07 14:32:00,
2013-04-07 10:37:00,49.4,30.5,30.25,WSW,237,3.0,16.0,48,0.00,,---,0.00,VWS V14.00,2013-04-07 14:37:00,
2013-04-07 10:43:00,50.3,29.8,30.25,SE,146,3.0,16.0,45,0.00,,---,0.00,VWS V14.00,2013-04-07 14:43:00,
2013-04-07 10:47:00,49.8,29.9,30.25,West,271,4.0,20.0,46,0.00,,---,0.00,VWS V14.00,2013-04-07 14:47:00,
2013-04-07 10:53:00,49.4,29.5,30.25,SW,234,6.0,20.0,46,0.00,,---,0.00,VWS V14.00,2013-04-07 14:53:00,
2013-04-07 10:58:00,49.2,30.4,30.25,West,261,11.0,20.0,48,0.00,,---,0.00,VWS V14.00,2013-04-07 14:58:00,
2013-04-07 11:03:00,48.8,30.5,30.24,WSW,239,4.0,11.0,49,0.00,,---,0.00,VWS V14.00,2013-04-07 15:03:00,
2013-04-07 11:08:00,49.3,32.0,30.24,WSW,240,4.0,14.0,51,0.00,,---,0.00,VWS V14.00,2013-04-07 15:08:00,
2013-04-07 11:13:00,49.6,31.7,30.24,South,191,4.0,14.0,50,0.00,,---,0.00,VWS V14.00,2013-04-07 15:13:00,
2013-04-07 11:18:00,50.0,31.1,30.23,South,175,9.0,14.0,48,0.00,,---,0.00,VWS V14.00,2013-04-07 15:18:00,
2013-04-07 11:23:00,50.0,31.6,30.23,SW,217,10.0,14.0,49,0.00,,---,0.00,VWS V14.00,2013-04-07 15:23:00,
2013-04-07 11:28:00,50.2,31.3,30.22,SSE,168,6.0,14.0,48,0.00,,---,0.00,VWS V14.00,2013-04-07 15:28:00,
2013-04-07 11:33:00,49.7,31.3,30.22,WSW,258,7.0,11.0,49,0.00,,---,0.00,VWS V14.00,2013-04-07 15:33:00,
2013-04-07 11:38:00,49.7,31.3,30.22,South,180,3.0,11.0,49,0.00,,---,0.00,VWS V14.00,2013-04-07 15:38:00,
2013-04-07 11:43:00,50.1,32.2,30.21,ESE,110,8.0,11.0,50,0.00,,---,0.00,VWS V14.00,2013-04-07 15:43:00,
2013-04-07 11:48:00,50.1,32.7,30.21,SSE,156,4.0,14.0,51,0.00,,---,0.00,VWS V14.00,2013-04-07 15:48:00,
2013-04-07 11:53:00,50.1,32.7,30.21,SSE,164,4.0,14.0,51,0.00,,---,0.00,VWS V14.00,2013-04-07 15:53:00,
2013-04-07 11:58:00,50.5,33.1,30.21,ESE,113,2.0,16.0,51,0.00,,---,0.00,VWS V14.00,2013-04-07 15:58:00,
2013-04-07 12:03:00,50.4,31.5,30.20,South,176,4.0,11.0,48,0.00,,---,0.00,VWS V14.00,2013-04-07 16:03:00,
2013-04-07 12:08:00,50.5,32.6,30.20,SSE,157,5.0,16.0,50,0.00,,---,0.00,VWS V14.00,2013-04-07 16:08:00,
2013-04-07 12:13:00,50.3,32.4,30.20,SSE,157,4.0,16.0,50,0.00,,---,0.00,VWS V14.00,2013-04-07 16:13:00,
2013-04-07 12:18:00,50.5,33.1,30.19,WSW,237,11.0,16.0,51,0.00,,---,0.00,VWS V14.00,2013-04-07 16:18:00,
2013-04-07 12:23:00,50.8,32.8,30.18,SE,136,8.0,16.0,50,0.00,,---,0.00,VWS V14.00,2013-04-07 16:23:00,
2013-04-07 12:28:00,51.0,34.0,30.19,WSW,240,5.0,16.0,52,0.00,,---,0.00,VWS V14.00,2013-04-07 16:28:00,
2013-04-07 12:33:00,50.9,32.4,30.19,South,186,2.0,16.0,49,0.00,,---,0.00,VWS V14.00,2013-04-07 16:33:00,
2013-04-07 12:38:00,51.3,33.3,30.18,SSE,159,2.0,16.0,50,0.00,,---,0.00,VWS V14.00,2013-04-07 16:38:00,
2013-04-07 12:43:00,51.2,32.2,30.18,ESE,114,5.0,16.0,48,0.00,,---,0.00,VWS V14.00,2013-04-07 16:43:00,
2013-04-07 12:48:00,51.0,32.0,30.18,SSE,162,7.0,16.0,48,0.00,,---,0.00,VWS V14.00,2013-04-07 16:48:00,
2013-04-07 12:53:00,51.2,33.2,30.17,SSW,213,3.0,21.0,50,0.00,,---,0.00,VWS V14.00,2013-04-07 16:53:00,
2013-04-07 12:58:00,52.3,32.7,30.17,SSW,202,3.0,21.0,47,0.00,,---,0.00,VWS V14.00,2013-04-07 16:58:00,
2013-04-07 13:03:00,52.0,32.9,30.17,SSW,198,6.0,15.0,48,0.00,,---,0.00,VWS V14.00,2013-04-07 17:03:00,
2013-04-07 13:08:00,52.9,34.3,30.16,South,190,9.0,17.0,49,0.00,,---,0.00,VWS V14.00,2013-04-07 17:08:00,
2013-04-07 13:13:00,53.6,35.4,30.16,SSW,194,7.0,17.0,50,0.00,,---,0.00,VWS V14.00,2013-04-07 17:13:00,
2013-04-07 13:18:00,54.0,34.8,30.15,South,179,6.0,17.0,48,0.00,,---,0.00,VWS V14.00,2013-04-07 17:18:00,
2013-04-07 13:23:00,54.1,35.9,30.16,South,171,8.0,17.0,50,0.00,,---,0.00,VWS V14.00,2013-04-07 17:23:00,
2013-04-07 13:28:00,53.8,36.1,30.15,SSW,198,9.0,17.0,51,0.00,,---,0.00,VWS V14.00,2013-04-07 17:28:00,
2013-04-07 13:33:00,53.6,35.9,30.15,SE,142,13.0,13.0,51,0.00,,---,0.00,VWS V14.00,2013-04-07 17:33:00,
2013-04-07 13:38:00,53.1,36.4,30.15,SW,220,3.0,21.0,53,0.00,,---,0.00,VWS V14.00,2013-04-07 17:38:00,
2013-04-07 13:43:00,53.4,36.7,30.14,SE,126,7.0,21.0,53,0.00,,---,0.00,VWS V14.00,2013-04-07 17:43:00,
2013-04-07 13:48:00,54.2,36.5,30.14,West,261,4.0,21.0,51,0.00,,---,0.00,VWS V14.00,2013-04-07 17:48:00,
2013-04-07 13:53:00,54.3,38.0,30.14,South,185,15.0,21.0,54,0.00,,---,0.00,VWS V14.00,2013-04-07 17:53:00,
2013-04-07 13:58:00,53.3,36.6,30.14,South,175,9.0,21.0,53,0.00,,---,0.00,VWS V14.00,2013-04-07 17:58:00,
2013-04-07 14:03:00,53.6,37.4,30.14,SSE,164,15.0,15.0,54,0.00,,---,0.00,VWS V14.00,2013-04-07 18:03:00,
2013-04-07 14:08:00,53.9,37.7,30.14,SSW,202,4.0,15.0,54,0.00,,---,0.00,VWS V14.00,2013-04-07 18:08:00,
2013-04-07 14:13:00,54.0,38.2,30.13,NW,321,5.0,21.0,55,0.00,,---,0.00,VWS V14.00,2013-04-07 18:13:00,
2013-04-07 14:18:00,54.4,38.6,30.13,SSW,208,11.0,21.0,55,0.00,,---,0.00,VWS V14.00,2013-04-07 18:18:00,
2013-04-07 14:23:00,52.8,36.6,30.13,SSW,195,7.0,21.0,54,0.00,,---,0.00,VWS V14.00,2013-04-07 18:23:00,
2013-04-07 14:28:00,52.9,38.1,30.12,SE,140,10.0,21.0,57,0.00,,---,0.00,VWS V14.00,2013-04-07 18:28:00,
2013-04-07 14:33:00,52.4,38.1,30.12,South,175,8.0,19.0,58,0.00,,---,0.00,VWS V14.00,2013-04-07 18:33:00,
2013-04-07 14:38:00,52.3,38.0,30.12,SSE,157,11.0,19.0,58,0.00,,---,0.00,VWS V14.00,2013-04-07 18:38:00,
2013-04-07 14:43:00,52.3,38.0,30.12,SSW,211,7.0,19.0,58,0.00,,---,0.00,VWS V14.00,2013-04-07 18:43:00,
2013-04-07 14:48:00,52.4,38.5,30.12,SSW,213,3.0,19.0,59,0.00,,---,0.00,VWS V14.00,2013-04-07 18:48:00,
2013-04-07 14:53:00,52.7,38.3,30.11,SSW,211,10.0,19.0,58,0.00,,---,0.00,VWS V14.00,2013-04-07 18:53:00,
2013-04-07 14:58:00,52.4,38.9,30.11,SSE,166,9.0,20.0,60,0.00,,---,0.00,VWS V14.00,2013-04-07 18:58:00,
2013-04-07 15:03:00,53.0,39.1,30.11,ENE,78,2.0,14.0,59,0.00,,---,0.00,VWS V14.00,2013-04-07 19:03:00,
2013-04-07 15:08:00,52.6,39.1,30.11,WSW,240,5.0,16.0,60,0.00,,---,0.00,VWS V14.00,2013-04-07 19:08:00,
2013-04-07 15:13:00,52.5,39.5,30.11,SSE,166,2.0,16.0,61,0.00,,---,0.00,VWS V14.00,2013-04-07 19:13:00,
2013-04-07 15:18:00,52.4,38.9,30.11,SSE,165,2.0,17.0,60,0.00,,---,0.00,VWS V14.00,2013-04-07 19:18:00,
2013-04-07 15:23:00,52.0,39.4,30.10,SW,214,1.0,17.0,62,0.00,,---,0.00,VWS V14.00,2013-04-07 19:23:00,
2013-04-07 15:28:00,52.8,39.7,30.10,SSW,192,2.0,17.0,61,0.00,,---,0.00,VWS V14.00,2013-04-07 19:28:00,
2013-04-07 15:33:00,52.4,39.4,30.10,WNW,295,3.0,20.0,61,0.00,,---,0.00,VWS V14.00,2013-04-07 19:33:00,
2013-04-07 15:38:00,51.9,39.3,30.09,South,183,6.0,20.0,62,0.00,,---,0.00,VWS V14.00,2013-04-07 19:38:00,
2013-04-07 15:43:00,52.5,39.5,30.09,South,171,4.0,20.0,61,0.00,,---,0.00,VWS V14.00,2013-04-07 19:43:00,
2013-04-07 15:48:00,52.0,40.2,30.08,SSW,196,5.0,20.0,64,0.00,,---,0.00,VWS V14.00,2013-04-07 19:48:00,
2013-04-07 15:53:00,52.6,40.4,30.08,SW,226,9.0,20.0,63,0.00,,---,0.00,VWS V14.00,2013-04-07 19:53:00,
2013-04-07 15:58:00,53.3,41.0,30.09,South,178,1.0,20.0,63,0.00,,---,0.00,VWS V14.00,2013-04-07 19:58:00,
2013-04-07 16:03:00,53.8,41.5,30.08,SW,236,5.0,13.0,63,0.00,,---,0.00,VWS V14.00,2013-04-07 20:03:00,
2013-04-07 16:08:00,54.2,39.8,30.08,SSW,192,6.0,17.0,58,0.00,,---,0.00,VWS V14.00,2013-04-07 20:08:00,
2013-04-07 16:13:00,53.5,39.1,30.08,SSW,205,4.0,17.0,58,0.00,,---,0.00,VWS V14.00,2013-04-07 20:13:00,
2013-04-07 16:18:00,53.8,38.9,30.08,West,265,6.0,17.0,57,0.00,,---,0.00,VWS V14.00,2013-04-07 20:18:00,
2013-04-07 16:23:00,53.4,39.0,30.08,SW,231,5.0,17.0,58,0.00,,---,0.00,VWS V14.00,2013-04-07 20:23:00,
2013-04-07 16:28:00,53.4,39.5,30.07,SE,139,8.0,20.0,59,0.00,,---,0.00,VWS V14.00,2013-04-07 20:28:00,
2013-04-07 16:33:00,52.6,38.7,30.07,WSW,238,6.0,14.0,59,0.00,,---,0.00,VWS V14.00,2013-04-07 20:33:00,
2013-04-07 16:38:00,51.8,39.2,30.07,South,189,5.0,14.0,62,0.00,,---,0.00,VWS V14.00,2013-04-07 20:38:00,
2013-04-07 16:43:00,52.1,39.5,30.07,West,267,9.0,17.0,62,0.00,,---,0.00,VWS V14.00,2013-04-07 20:43:00,
2013-04-07 16:48:00,52.1,39.5,30.06,South,173,3.0,17.0,62,0.00,,---,0.00,VWS V14.00,2013-04-07 20:48:00,
2013-04-07 16:53:00,52.3,39.7,30.06,WSW,258,7.0,21.0,62,0.00,,---,0.00,VWS V14.00,2013-04-07 20:53:00,
2013-04-07 16:58:00,52.2,39.6,30.06,WSW,254,6.0,21.0,62,0.00,,---,0.00,VWS V14.00,2013-04-07 20:58:00,
2013-04-07 17:03:00,52.1,39.5,30.06,South,183,3.0,17.0,62,0.00,,---,0.00,VWS V14.00,2013-04-07 21:03:00,
2013-04-07 17:08:00,51.6,39.0,30.05,WSW,247,10.0,19.0,62,0.00,,---,0.00,VWS V14.00,2013-04-07 21:08:00,
2013-04-07 17:13:00,51.4,39.7,30.05,SW,223,3.0,19.0,64,0.00,,---,0.00,VWS V14.00,2013-04-07 21:13:00,
2013-04-07 17:18:00,51.6,39.8,30.05,SSW,202,8.0,19.0,64,0.00,,---,0.00,VWS V14.00,2013-04-07 21:18:00,
2013-04-07 17:23:00,51.7,39.5,30.04,SE,144,11.0,19.0,63,0.00,,---,0.00,VWS V14.00,2013-04-07 21:23:00,
2013-04-07 17:28:00,51.8,40.0,30.04,SW,217,7.0,19.0,64,0.00,,---,0.00,VWS V14.00,2013-04-07 21:28:00,
2013-04-07 17:33:00,51.5,39.7,30.02,South,185,2.0,20.0,64,0.00,,---,0.00,VWS V14.00,2013-04-07 21:33:00,
2013-04-07 17:38:00,50.9,39.6,30.03,WSW,243,4.0,20.0,65,0.00,,---,0.00,VWS V14.00,2013-04-07 21:38:00,
2013-04-07 17:43:00,50.4,39.5,30.02,SW,230,3.0,20.0,66,0.00,,---,0.00,VWS V14.00,2013-04-07 21:43:00,
2013-04-07 17:48:00,50.0,39.5,30.02,SSW,211,7.0,23.0,67,0.00,,---,0.00,VWS V14.00,2013-04-07 21:48:00,
2013-04-07 17:53:00,49.9,39.8,30.02,SW,223,12.0,23.0,68,0.00,,---,0.00,VWS V14.00,2013-04-07 21:53:00,
2013-04-07 17:58:00,49.9,39.4,30.02,SW,218,9.0,23.0,67,0.00,,---,0.00,VWS V14.00,2013-04-07 21:58:00,
2013-04-07 18:03:00,49.9,39.4,30.02,WSW,242,7.0,14.0,67,0.00,,---,0.00,VWS V14.00,2013-04-07 22:03:00,
2013-04-07 18:09:00,49.8,39.7,30.02,SW,223,5.0,24.0,68,0.00,,---,0.00,VWS V14.00,2013-04-07 22:09:00,
2013-04-07 18:14:00,49.5,39.4,30.02,WSW,239,6.0,24.0,68,0.00,,---,0.00,VWS V14.00,2013-04-07 22:14:00,
2013-04-07 18:19:00,49.2,39.5,30.02,SW,230,7.0,24.0,69,0.00,,---,0.00,VWS V14.00,2013-04-07 22:19:00,
2013-04-07 18:24:00,48.9,39.6,30.02,South,190,12.0,24.0,70,0.00,,---,0.00,VWS V14.00,2013-04-07 22:24:00,
2013-04-07 18:29:00,48.5,39.9,30.02,SSE,148,5.0,24.0,72,0.00,,---,0.00,VWS V14.00,2013-04-07 22:29:00,
2013-04-07 18:34:00,48.1,39.9,30.02,SW,219,2.0,18.0,73,0.00,,---,0.00,VWS V14.00,2013-04-07 22:34:00,
2013-04-07 18:39:00,47.7,40.2,30.03,WSW,258,4.0,18.0,75,0.00,,---,0.00,VWS V14.00,2013-04-07 22:39:00,
2013-04-07 18:44:00,47.5,40.3,30.04,West,275,1.0,18.0,76,0.00,,---,0.00,VWS V14.00,2013-04-07 22:44:00,
2013-04-07 18:49:00,47.4,40.2,30.05,WSW,245,4.0,18.0,76,0.00,,---,0.00,VWS V14.00,2013-04-07 22:49:00,
2013-04-07 18:54:00,47.4,40.2,30.04,SSW,195,7.0,18.0,76,0.00,,---,0.00,VWS V14.00,2013-04-07 22:54:00,
2013-04-07 18:59:00,47.6,40.1,30.04,WSW,247,5.0,18.0,75,0.00,,---,0.00,VWS V14.00,2013-04-07 22:59:00,
2013-04-07 19:04:00,47.8,40.3,30.05,SSW,213,6.0,11.0,75,0.00,,---,0.00,VWS V14.00,2013-04-07 23:04:00,
2013-04-07 19:09:00,47.9,40.4,30.05,WSW,257,6.0,11.0,75,0.00,,---,0.00,VWS V14.00,2013-04-07 23:09:00,
2013-04-07 19:14:00,47.9,40.4,30.05,WSW,239,6.0,12.0,75,0.00,,---,0.00,VWS V14.00,2013-04-07 23:14:00,
2013-04-07 19:19:00,47.9,40.4,30.05,WSW,238,3.0,13.0,75,0.00,,---,0.00,VWS V14.00,2013-04-07 23:19:00,
2013-04-07 19:24:00,47.8,40.3,30.04,SE,140,8.0,15.0,75,0.00,,---,0.00,VWS V14.00,2013-04-07 23:24:00,
2013-04-07 19:29:00,47.7,40.2,30.03,SSW,205,6.0,15.0,75,0.00,,---,0.00,VWS V14.00,2013-04-07 23:29:00,
2013-04-07 19:34:00,47.5,40.3,30.03,SSW,213,5.0,13.0,76,0.00,,---,0.00,VWS V14.00,2013-04-07 23:34:00,
2013-04-07 19:39:00,47.5,40.3,30.03,WSW,252,4.0,21.0,76,0.00,,---,0.00,VWS V14.00,2013-04-07 23:39:00,
2013-04-07 19:44:00,47.5,40.3,30.03,SSW,194,7.0,21.0,76,0.00,,---,0.00,VWS V14.00,2013-04-07 23:44:00,
2013-04-07 19:49:00,47.5,40.3,30.03,SW,227,6.0,21.0,76,0.00,,---,0.00,VWS V14.00,2013-04-07 23:49:00,
2013-04-07 19:54:00,47.5,40.3,30.03,SSW,210,4.0,21.0,76,0.00,,---,0.00,VWS V14.00,2013-04-07 23:54:00,
2013-04-07 19:59:00,47.4,40.2,30.03,SSW,203,4.0,21.0,76,0.00,,---,0.00,VWS V14.00,2013-04-07 23:59:00,
2013-04-07 20:04:00,47.4,40.2,30.03,SW,232,9.0,9.0,76,0.00,,---,0.00,VWS V14.00,2013-04-08 00:04:00,
2013-04-07 20:09:00,47.4,40.6,30.04,WSW,254,6.0,18.0,77,0.00,,---,0.00,VWS V14.00,2013-04-08 00:09:00,
2013-04-07 20:14:00,47.5,40.7,30.04,WSW,257,4.0,18.0,77,0.00,,---,0.00,VWS V14.00,2013-04-08 00:14:00,
2013-04-07 20:19:00,47.5,40.7,30.05,SW,229,5.0,18.0,77,0.00,,---,0.00,VWS V14.00,2013-04-08 00:19:00,
2013-04-07 20:24:00,47.6,41.1,30.05,SW,236,5.0,18.0,78,0.00,,---,0.00,VWS V14.00,2013-04-08 00:24:00,
2013-04-07 20:30:00,47.6,41.1,30.05,SW,214,2.0,18.0,78,0.00,,---,0.00,VWS V14.00,2013-04-08 00:30:00,
2013-04-07 20:35:00,47.6,41.1,30.05,SSW,204,5.0,9.0,78,0.00,,---,0.00,VWS V14.00,2013-04-08 00:35:00,
2013-04-07 20:40:00,47.6,41.1,30.06,SW,235,2.0,11.0,78,0.00,,---,0.00,VWS V14.00,2013-04-08 00:40:00,
2013-04-07 20:45:00,47.6,41.4,30.06,SW,222,3.0,11.0,79,0.00,,---,0.00,VWS V14.00,2013-04-08 00:45:00,
2013-04-07 20:50:00,47.5,41.3,30.06,SW,231,3.0,11.0,79,0.00,,---,0.00,VWS V14.00,2013-04-08 00:50:00,
2013-04-07 20:55:00,47.5,41.3,30.06,SW,227,4.0,11.0,79,0.00,,---,0.00,VWS V14.00,2013-04-08 00:55:00,
2013-04-07 21:00:00,47.5,41.3,30.05,SW,232,7.0,11.0,79,0.00,,---,0.00,VWS V14.00,2013-04-08 01:00:00,
2013-04-07 21:05:00,47.4,41.2,30.05,SSW,192,4.0,10.0,79,0.00,,---,0.00,VWS V14.00,2013-04-08 01:05:00,
2013-04-07 21:10:00,47.3,41.5,30.04,SSW,202,5.0,11.0,80,0.00,,---,0.00,VWS V14.00,2013-04-08 01:10:00,
2013-04-07 21:15:00,47.2,41.4,30.04,SSW,213,2.0,11.0,80,0.00,,---,0.00,VWS V14.00,2013-04-08 01:15:00,
2013-04-07 21:20:00,47.0,41.2,30.04,SSE,157,6.0,11.0,80,0.00,,---,0.00,VWS V14.00,2013-04-08 01:20:00,
2013-04-07 21:25:00,46.8,41.0,30.04,WSW,254,2.0,11.0,80,0.00,,---,0.00,VWS V14.00,2013-04-08 01:25:00,
2013-04-07 21:30:00,46.6,41.1,30.04,SW,217,3.0,11.0,81,0.00,,---,0.00,VWS V14.00,2013-04-08 01:30:00,
2013-04-07 21:35:00,46.4,40.9,30.04,SSW,201,2.0,7.0,81,0.00,,---,0.00,VWS V14.00,2013-04-08 01:35:00,
2013-04-07 21:40:00,46.3,41.1,30.03,WSW,244,8.0,8.0,82,0.00,,---,0.00,VWS V14.00,2013-04-08 01:40:00,
2013-04-07 21:45:00,46.3,41.1,30.03,South,188,6.0,10.0,82,0.00,,---,0.00,VWS V14.00,2013-04-08 01:45:00,
2013-04-07 21:50:00,46.2,41.3,30.03,SW,220,3.0,10.0,83,0.00,,---,0.00,VWS V14.00,2013-04-08 01:50:00,
2013-04-07 21:55:00,46.2,41.3,30.04,WSW,252,5.0,10.0,83,0.00,,---,0.00,VWS V14.00,2013-04-08 01:55:00,
2013-04-07 22:00:00,46.1,41.2,30.03,SW,218,2.0,16.0,83,0.00,,---,0.00,VWS V14.00,2013-04-08 02:00:00,
2013-04-07 22:05:00,46.2,41.3,30.04,SW,214,3.0,11.0,83,0.00,,---,0.00,VWS V14.00,2013-04-08 02:05:00,
2013-04-07 22:10:00,46.2,41.3,30.03,WSW,245,4.0,11.0,83,0.00,,---,0.00,VWS V14.00,2013-04-08 02:10:00,
2013-04-07 22:15:00,46.1,41.5,30.03,WSW,248,5.0,11.0,84,0.00,,---,0.00,VWS V14.00,2013-04-08 02:15:00,
2013-04-07 22:20:00,46.1,41.5,30.03,SSW,200,7.0,11.0,84,0.00,,---,0.00,VWS V14.00,2013-04-08 02:20:00,
2013-04-07 22:25:00,46.1,41.5,30.03,SW,231,4.0,11.0,84,0.00,,---,0.00,VWS V14.00,2013-04-08 02:25:00,
2013-04-07 22:30:00,46.1,41.8,30.02,SW,227,5.0,13.0,85,0.00,,---,0.00,VWS V14.00,2013-04-08 02:30:00,
2013-04-07 22:35:00,46.0,41.8,30.02,WSW,250,6.0,12.0,85,0.00,,---,0.00,VWS V14.00,2013-04-08 02:35:00,
2013-04-07 22:40:00,46.1,41.8,30.02,SSW,213,1.0,12.0,85,0.00,,---,0.00,VWS V14.00,2013-04-08 02:40:00,
2013-04-07 22:45:00,46.0,41.8,30.02,WSW,242,3.0,12.0,85,0.00,,---,0.00,VWS V14.00,2013-04-08 02:45:00,
2013-04-07 22:50:00,46.0,42.0,30.02,SSW,204,6.0,12.0,86,0.00,,---,0.00,VWS V14.00,2013-04-08 02:50:00,
2013-04-07 22:56:00,46.2,42.2,30.02,SSW,198,0.0,12.0,86,0.00,,---,0.00,VWS V14.00,2013-04-08 02:56:00,
2013-04-07 23:01:00,46.4,42.5,30.02,SW,227,4.0,12.0,86,0.00,,---,0.00,VWS V14.00,2013-04-08 03:01:00,
2013-04-07 23:05:00,46.5,42.5,30.02,SSW,210,1.0,8.0,86,0.00,,---,0.00,VWS V14.00,2013-04-08 03:05:00,
2013-04-07 23:11:00,46.6,42.6,30.02,SSW,195,4.0,10.0,86,0.00,,---,0.00,VWS V14.00,2013-04-08 03:11:00,
2013-04-07 23:16:00,46.7,42.7,30.02,SW,235,7.0,10.0,86,0.00,,---,0.00,VWS V14.00,2013-04-08 03:16:00,
2013-04-07 23:21:00,46.7,42.7,30.02,SSW,192,8.0,10.0,86,0.00,,---,0.00,VWS V14.00,2013-04-08 03:21:00,
2013-04-07 23:26:00,46.7,43.0,30.02,SW,221,6.0,11.0,87,0.00,,---,0.00,VWS V14.00,2013-04-08 03:26:00,
2013-04-07 23:31:00,46.7,43.0,30.01,SW,234,2.0,11.0,87,0.00,,---,0.00,VWS V14.00,2013-04-08 03:31:00,
2013-04-07 23:36:00,46.8,43.1,30.01,SW,217,7.0,8.0,87,0.00,,---,0.00,VWS V14.00,2013-04-08 03:36:00,
2013-04-07 23:41:00,46.7,43.0,30.01,SW,224,4.0,8.0,87,0.00,,---,0.00,VWS V14.00,2013-04-08 03:41:00,
2013-04-07 23:46:00,46.7,43.0,30.01,SW,217,2.0,9.0,87,0.00,,---,0.00,VWS V14.00,2013-04-08 03:46:00,
2013-04-07 23:51:00,46.7,43.3,30.01,SW,217,5.0,10.0,88,0.00,,---,0.00,VWS V14.00,2013-04-08 03:51:00,
2013-04-07 23:56:00,46.8,43.4,30.01,WSW,244,6.0,12.0,88,0.00,,---,0.00,VWS V14.00,2013-04-08 03:56:00,